createdAt,value
2023-02-22T00:00:20.984Z,7.97
2023-02-22T00:01:20.971Z,7.96
2023-02-22T00:02:21.100Z,7.96
2023-02-22T00:03:20.910Z,7.94
2023-02-22T00:04:20.975Z,7.96
2023-02-22T00:05:20.886Z,7.94
2023-02-22T00:06:20.898Z,7.93
2023-02-22T00:07:20.878Z,7.93
2023-02-22T00:08:20.925Z,7.94
2023-02-22T00:09:20.878Z,7.92
2023-02-22T00:10:20.845Z,7.90
2023-02-22T00:11:20.837Z,7.92
2023-02-22T00:12:20.815Z,7.90
2023-02-22T00:13:20.811Z,7.90
2023-02-22T00:14:20.843Z,7.89
2023-02-22T00:15:20.750Z,7.90
2023-02-22T00:16:20.823Z,7.89
2023-02-22T00:17:20.726Z,7.87
2023-02-22T00:18:20.743Z,7.85
2023-02-22T00:19:20.718Z,7.82
2023-02-22T00:20:20.753Z,7.79
2023-02-22T00:21:20.696Z,7.79
2023-02-22T00:22:20.702Z,7.78
2023-02-22T00:23:20.643Z,7.78
2023-02-22T00:24:20.643Z,7.78
2023-02-22T00:25:20.631Z,7.77
2023-02-22T00:26:20.761Z,7.77
2023-02-22T00:27:20.592Z,7.78
2023-02-22T00:28:20.632Z,7.78
2023-02-22T00:29:20.557Z,7.78
2023-02-22T00:30:20.675Z,7.77
2023-02-22T00:31:20.880Z,7.79
2023-02-22T00:32:20.700Z,7.78
2023-02-22T00:33:20.538Z,7.77
2023-02-22T00:34:20.497Z,7.77
2023-02-22T00:35:20.542Z,7.77
2023-02-22T00:36:20.485Z,7.75
2023-02-22T00:37:20.493Z,7.72
2023-02-22T00:38:20.575Z,7.74
2023-02-22T00:39:20.481Z,7.74
2023-02-22T00:40:20.465Z,7.72
2023-02-22T00:41:20.501Z,7.72
2023-02-22T00:42:20.397Z,7.72
2023-02-22T00:43:20.433Z,7.74
2023-02-22T00:44:20.381Z,7.74
2023-02-22T00:45:20.393Z,7.74
2023-02-22T00:46:20.402Z,7.75
2023-02-22T00:47:20.337Z,7.75
2023-02-22T00:48:20.336Z,7.74
2023-02-22T00:49:20.367Z,7.72
2023-02-22T00:50:20.353Z,7.74
2023-02-22T00:51:20.341Z,7.71
2023-02-22T00:52:20.239Z,7.67
2023-02-22T00:53:20.279Z,7.66
2023-02-22T00:54:20.246Z,7.66
2023-02-22T00:55:20.234Z,7.63
2023-02-22T00:56:20.302Z,7.66
2023-02-22T00:57:20.230Z,7.67
2023-02-22T00:58:20.202Z,7.67
2023-02-22T00:59:20.173Z,7.67
2023-02-22T01:00:20.172Z,7.67
2023-02-22T01:01:20.206Z,7.67
2023-02-22T01:02:20.273Z,7.69
2023-02-22T01:03:20.144Z,7.69
2023-02-22T01:04:20.094Z,7.71
2023-02-22T01:05:20.132Z,7.71
2023-02-22T01:06:20.091Z,7.71
2023-02-22T01:07:20.066Z,7.71
2023-02-22T01:08:20.098Z,7.72
2023-02-22T01:09:20.030Z,7.72
2023-02-22T01:10:19.999Z,7.74
2023-02-22T01:11:20.036Z,7.75
2023-02-22T01:12:19.998Z,7.74
2023-02-22T01:13:19.991Z,7.75
2023-02-22T01:14:19.982Z,7.75
2023-02-22T01:15:19.974Z,7.77
2023-02-22T01:16:19.943Z,7.77
2023-02-22T01:17:19.963Z,7.77
2023-02-22T01:18:19.905Z,7.78
2023-02-22T01:19:19.916Z,7.75
2023-02-22T01:20:20.035Z,7.74
2023-02-22T01:21:19.870Z,7.74
2023-02-22T01:22:19.852Z,7.75
2023-02-22T01:23:19.870Z,7.74
2023-02-22T01:24:19.802Z,7.75
2023-02-22T01:25:19.838Z,7.72
2023-02-22T01:26:19.839Z,7.74
2023-02-22T01:27:19.808Z,7.74
2023-02-22T01:28:19.743Z,7.74
2023-02-22T01:29:19.789Z,7.75
2023-02-22T01:30:19.775Z,7.75
2023-02-22T01:31:20.157Z,7.74
2023-02-22T01:32:19.769Z,7.75
2023-02-22T01:33:19.716Z,7.75
2023-02-22T01:34:19.666Z,7.75
2023-02-22T01:35:19.733Z,7.75
2023-02-22T01:36:19.641Z,7.74
2023-02-22T01:37:19.678Z,7.74
2023-02-22T01:38:19.749Z,7.72
2023-02-22T01:39:19.625Z,7.74
2023-02-22T01:40:19.609Z,7.77
2023-02-22T01:41:19.608Z,7.78
2023-02-22T01:42:19.554Z,7.78
2023-02-22T01:43:19.590Z,7.78
2023-02-22T01:44:19.619Z,7.78
2023-02-22T01:45:19.532Z,7.78
2023-02-22T01:46:19.554Z,7.78
2023-02-22T01:47:19.529Z,7.77
2023-02-22T01:48:19.502Z,7.77
2023-02-22T01:49:19.493Z,7.75
2023-02-22T01:50:20.246Z,7.75
2023-02-22T01:51:19.600Z,7.75
2023-02-22T01:52:19.495Z,7.75
2023-02-22T01:53:19.693Z,7.74
2023-02-22T01:54:19.435Z,7.74
2023-02-22T01:55:19.411Z,7.77
2023-02-22T01:56:19.525Z,7.78
2023-02-22T01:57:19.370Z,7.78
2023-02-22T01:58:19.391Z,7.78
2023-02-22T01:59:19.325Z,7.79
2023-02-22T02:00:19.356Z,7.79
2023-02-22T02:01:19.597Z,7.79
2023-02-22T02:02:19.393Z,7.78
2023-02-22T02:03:19.265Z,7.78
2023-02-22T02:04:19.314Z,7.77
2023-02-22T02:05:19.317Z,7.78
2023-02-22T02:06:19.256Z,7.75
2023-02-22T02:07:19.254Z,7.77
2023-02-22T02:08:19.280Z,7.78
2023-02-22T02:09:19.243Z,7.79
2023-02-22T02:10:19.242Z,7.78
2023-02-22T02:11:19.201Z,7.81
2023-02-22T02:12:19.205Z,7.82
2023-02-22T02:13:19.142Z,7.82
2023-02-22T02:14:19.280Z,7.82
2023-02-22T02:15:19.151Z,7.84
2023-02-22T02:16:19.168Z,7.84
2023-02-22T02:17:19.102Z,7.85
2023-02-22T02:18:19.121Z,7.85
2023-02-22T02:19:19.093Z,7.85
2023-02-22T02:20:19.113Z,7.85
2023-02-22T02:21:19.073Z,7.84
2023-02-22T02:22:19.069Z,7.85
2023-02-22T02:23:19.030Z,7.84
2023-02-22T02:24:19.054Z,7.85
2023-02-22T02:25:19.014Z,7.85
2023-02-22T02:26:19.111Z,7.85
2023-02-22T02:27:18.981Z,7.85
2023-02-22T02:28:18.997Z,7.89
2023-02-22T02:29:18.977Z,7.89
2023-02-22T02:30:18.979Z,7.87
2023-02-22T02:31:19.225Z,7.89
2023-02-22T02:32:19.088Z,7.89
2023-02-22T02:33:18.894Z,7.87
2023-02-22T02:34:18.944Z,7.89
2023-02-22T02:35:18.837Z,7.87
2023-02-22T02:36:18.880Z,7.90
2023-02-22T02:37:18.814Z,7.89
2023-02-22T02:38:18.889Z,7.89
2023-02-22T02:39:18.816Z,7.87
2023-02-22T02:40:18.848Z,7.89
2023-02-22T02:41:19.037Z,7.89
2023-02-22T02:42:18.798Z,7.90
2023-02-22T02:43:18.743Z,7.89
2023-02-22T02:44:18.801Z,7.89
2023-02-22T02:45:18.720Z,7.90
2023-02-22T02:46:18.734Z,7.92
2023-02-22T02:47:18.776Z,7.92
2023-02-22T02:48:18.703Z,7.92
2023-02-22T02:49:18.680Z,7.92
2023-02-22T02:50:18.831Z,7.93
2023-02-22T02:51:18.797Z,7.92
2023-02-22T02:52:18.666Z,7.92
2023-02-22T02:53:18.613Z,7.92
2023-02-22T02:54:18.615Z,7.92
2023-02-22T02:55:18.599Z,7.93
2023-02-22T02:56:18.615Z,7.90
2023-02-22T02:57:18.570Z,7.92
2023-02-22T02:58:18.593Z,7.92
2023-02-22T02:59:18.520Z,7.92
2023-02-22T03:00:18.581Z,7.92
2023-02-22T03:01:18.860Z,7.92
2023-02-22T03:02:18.537Z,7.92
2023-02-22T03:03:18.485Z,7.90
2023-02-22T03:04:18.505Z,7.92
2023-02-22T03:05:18.466Z,7.90
2023-02-22T03:06:18.460Z,7.92
2023-02-22T03:07:18.526Z,7.92
2023-02-22T03:08:18.569Z,7.93
2023-02-22T03:09:18.438Z,7.93
2023-02-22T03:10:18.439Z,7.92
2023-02-22T03:11:18.768Z,7.93
2023-02-22T03:12:18.397Z,7.92
2023-02-22T03:13:18.331Z,7.93
2023-02-22T03:14:18.480Z,7.94
2023-02-22T03:15:18.327Z,7.93
2023-02-22T03:16:18.374Z,7.94
2023-02-22T03:17:18.298Z,7.93
2023-02-22T03:18:18.321Z,7.93
2023-02-22T03:19:18.242Z,7.93
2023-02-22T03:20:18.283Z,7.93
2023-02-22T03:21:18.577Z,7.92
2023-02-22T03:22:18.286Z,7.92
2023-02-22T03:23:18.196Z,7.94
2023-02-22T03:24:18.265Z,7.94
2023-02-22T03:25:18.170Z,7.94
2023-02-22T03:26:18.217Z,7.96
2023-02-22T03:27:18.165Z,7.96
2023-02-22T03:28:18.159Z,7.96
2023-02-22T03:29:18.152Z,7.96
2023-02-22T03:30:18.164Z,7.97
2023-02-22T03:31:18.403Z,7.99
2023-02-22T03:32:18.281Z,7.99
2023-02-22T03:33:18.063Z,8.00
2023-02-22T03:34:18.096Z,8.03
2023-02-22T03:35:18.063Z,8.02
2023-02-22T03:36:18.082Z,8.00
2023-02-22T03:37:18.013Z,8.02
2023-02-22T03:38:18.042Z,8.02
2023-02-22T03:39:18.004Z,8.02
2023-02-22T03:40:18.002Z,8.00
2023-02-22T03:41:18.254Z,8.00
2023-02-22T03:42:17.991Z,7.99
2023-02-22T03:43:17.922Z,8.02
2023-02-22T03:44:17.989Z,8.00
2023-02-22T03:45:17.882Z,8.00
2023-02-22T03:46:17.932Z,8.00
2023-02-22T03:47:17.898Z,7.99
2023-02-22T03:48:17.882Z,7.99
2023-02-22T03:49:17.861Z,8.00
2023-02-22T03:50:18.015Z,8.00
2023-02-22T03:51:18.237Z,8.00
2023-02-22T03:52:17.859Z,8.00
2023-02-22T03:53:17.784Z,7.99
2023-02-22T03:54:17.802Z,7.99
2023-02-22T03:55:17.808Z,8.00
2023-02-22T03:56:17.877Z,8.02
2023-02-22T03:57:17.762Z,8.00
2023-02-22T03:58:17.792Z,8.00
2023-02-22T03:59:17.712Z,8.02
2023-02-22T04:00:17.754Z,8.00
2023-02-22T04:01:17.939Z,7.99
2023-02-22T04:02:17.728Z,7.99
2023-02-22T04:03:17.719Z,7.99
2023-02-22T04:04:17.704Z,7.99
2023-02-22T04:05:17.663Z,7.99
2023-02-22T04:06:17.666Z,7.97
2023-02-22T04:07:17.599Z,7.99
2023-02-22T04:08:17.730Z,7.99
2023-02-22T04:09:17.595Z,7.99
2023-02-22T04:10:17.611Z,7.99
2023-02-22T04:11:17.787Z,7.97
2023-02-22T04:12:17.589Z,7.96
2023-02-22T04:13:17.512Z,7.97
2023-02-22T04:14:17.572Z,7.96
2023-02-22T04:15:17.534Z,7.96
2023-02-22T04:16:17.539Z,7.94
2023-02-22T04:17:17.498Z,7.94
2023-02-22T04:18:17.529Z,7.94
2023-02-22T04:19:17.453Z,7.94
2023-02-22T04:20:17.507Z,7.93
2023-02-22T04:21:17.820Z,7.92
2023-02-22T04:22:17.427Z,7.92
2023-02-22T04:23:17.410Z,7.90
2023-02-22T04:24:17.421Z,7.90
2023-02-22T04:25:17.355Z,7.89
2023-02-22T04:26:17.414Z,7.87
2023-02-22T04:27:17.364Z,7.84
2023-02-22T04:28:17.337Z,7.84
2023-02-22T04:29:17.326Z,7.84
2023-02-22T04:30:17.358Z,7.84
2023-02-22T04:31:17.613Z,7.84
2023-02-22T04:32:17.393Z,7.84
2023-02-22T04:33:17.253Z,7.87
2023-02-22T04:34:17.257Z,7.87
2023-02-22T04:35:17.263Z,7.87
2023-02-22T04:36:17.231Z,7.87
2023-02-22T04:37:17.234Z,7.92
2023-02-22T04:38:17.263Z,7.92
2023-02-22T04:39:17.182Z,7.90
2023-02-22T04:40:17.179Z,7.90
2023-02-22T04:41:17.431Z,7.92
2023-02-22T04:42:17.176Z,7.90
2023-02-22T04:43:17.150Z,7.90
2023-02-22T04:44:17.264Z,7.92
2023-02-22T04:45:17.111Z,7.90
2023-02-22T04:46:17.154Z,7.89
2023-02-22T04:47:17.079Z,7.89
2023-02-22T04:48:17.063Z,7.87
2023-02-22T04:49:17.052Z,7.87
2023-02-22T04:50:17.096Z,7.87
2023-02-22T04:51:17.207Z,7.85
2023-02-22T04:52:17.042Z,7.85
2023-02-22T04:53:16.984Z,7.84
2023-02-22T04:54:16.993Z,7.81
2023-02-22T04:55:16.975Z,7.79
2023-02-22T04:56:17.072Z,7.81
2023-02-22T04:57:16.949Z,7.81
2023-02-22T04:58:16.981Z,7.79
2023-02-22T04:59:16.904Z,7.78
2023-02-22T05:00:16.950Z,7.79
2023-02-22T05:01:17.238Z,7.78
2023-02-22T05:02:16.969Z,7.78
2023-02-22T05:03:16.861Z,7.79
2023-02-22T05:04:16.855Z,7.78
2023-02-22T05:05:16.832Z,7.77
2023-02-22T05:06:16.862Z,7.77
2023-02-22T05:07:16.785Z,7.75
2023-02-22T05:08:16.949Z,7.75
2023-02-22T05:09:16.757Z,7.75
2023-02-22T05:10:16.777Z,7.74
2023-02-22T05:11:17.046Z,7.74
2023-02-22T05:12:16.779Z,7.72
2023-02-22T05:13:16.716Z,7.72
2023-02-22T05:14:16.837Z,7.69
2023-02-22T05:15:16.708Z,7.66
2023-02-22T05:16:16.779Z,7.66
2023-02-22T05:17:16.677Z,7.60
2023-02-22T05:18:16.701Z,7.60
2023-02-22T05:19:16.626Z,7.58
2023-02-22T05:20:18.354Z,7.53
2023-02-22T05:21:16.952Z,7.50
2023-02-22T05:22:16.618Z,7.44
2023-02-22T05:23:16.588Z,7.42
2023-02-22T05:24:16.589Z,7.40
2023-02-22T05:25:16.569Z,7.37
2023-02-22T05:26:16.609Z,7.35
2023-02-22T05:27:16.530Z,7.27
2023-02-22T05:28:16.524Z,7.22
2023-02-22T05:29:16.508Z,7.20
2023-02-22T05:30:16.541Z,7.15
2023-02-22T05:31:16.864Z,7.13
2023-02-22T05:32:16.630Z,7.12
2023-02-22T05:33:16.453Z,7.09
2023-02-22T05:34:16.444Z,7.09
2023-02-22T05:35:16.430Z,7.08
2023-02-22T05:36:16.417Z,7.04
2023-02-22T05:37:16.396Z,6.99
2023-02-22T05:38:16.545Z,6.98
2023-02-22T05:39:16.367Z,6.97
2023-02-22T05:40:16.393Z,6.97
2023-02-22T05:41:16.688Z,6.97
2023-02-22T05:42:16.349Z,6.95
2023-02-22T05:43:16.356Z,6.95
2023-02-22T05:44:16.457Z,6.90
2023-02-22T05:45:16.269Z,6.87
2023-02-22T05:46:16.321Z,6.84
2023-02-22T05:47:16.266Z,6.81
2023-02-22T05:48:16.262Z,6.79
2023-02-22T05:49:16.251Z,6.73
2023-02-22T05:50:16.332Z,6.69
2023-02-22T05:51:16.427Z,6.66
2023-02-22T05:52:16.227Z,6.58
2023-02-22T05:53:16.168Z,6.51
2023-02-22T05:54:16.183Z,6.51
2023-02-22T05:55:16.150Z,6.48
2023-02-22T05:56:16.193Z,6.44
2023-02-22T05:57:16.147Z,6.36
2023-02-22T05:59:27.177Z,6.32
2023-02-22T06:00:27.121Z,6.30
2023-02-22T06:01:27.179Z,6.25
2023-02-22T06:02:27.055Z,6.16
2023-02-22T06:03:27.120Z,6.11
2023-02-22T06:04:27.056Z,6.09
2023-02-22T06:05:27.097Z,6.06
2023-02-22T06:06:27.023Z,6.00
2023-02-22T06:07:27.114Z,5.98
2023-02-22T06:08:26.970Z,5.96
2023-02-22T06:09:27.025Z,5.92
2023-02-22T06:10:27.019Z,5.91
2023-02-22T06:11:26.959Z,5.96
2023-02-22T06:12:26.911Z,5.98
2023-02-22T06:13:27.006Z,5.98
2023-02-22T06:14:26.895Z,5.93
2023-02-22T06:15:26.952Z,5.89
2023-02-22T06:16:26.932Z,5.88
2023-02-22T06:17:26.886Z,5.85
2023-02-22T06:18:26.878Z,5.82
2023-02-22T06:19:26.899Z,5.78
2023-02-22T06:20:26.824Z,5.74
2023-02-22T06:21:26.850Z,5.71
2023-02-22T06:22:26.810Z,5.67
2023-02-22T06:23:26.870Z,5.60
2023-02-22T06:24:26.786Z,5.59
2023-02-22T06:25:26.808Z,5.56
2023-02-22T06:26:26.742Z,5.55
2023-02-22T06:27:26.776Z,5.53
2023-02-22T06:28:26.737Z,5.56
2023-02-22T06:29:26.727Z,5.53
2023-02-22T06:30:26.732Z,5.52
2023-02-22T06:31:26.780Z,5.50
2023-02-22T06:32:26.708Z,5.46
2023-02-22T06:33:26.717Z,5.45
2023-02-22T06:34:26.631Z,5.41
2023-02-22T06:35:26.677Z,5.40
2023-02-22T06:36:26.638Z,5.38
2023-02-22T06:37:26.717Z,5.38
2023-02-22T06:38:27.802Z,5.38
2023-02-22T06:39:26.627Z,5.38
2023-02-22T06:40:26.573Z,5.40
2023-02-22T06:41:26.591Z,5.38
2023-02-22T06:42:26.611Z,5.35
2023-02-22T06:43:26.562Z,5.34
2023-02-22T06:44:26.502Z,5.34
2023-02-22T06:45:26.613Z,5.31
2023-02-22T06:46:26.463Z,5.31
2023-02-22T06:47:26.534Z,5.28
2023-02-22T06:48:26.480Z,5.23
2023-02-22T06:49:26.485Z,5.27
2023-02-22T06:50:26.460Z,5.27
2023-02-22T06:51:26.433Z,5.28
2023-02-22T06:52:26.403Z,5.28
2023-02-22T06:53:26.441Z,5.30
2023-02-22T06:54:26.364Z,5.30
2023-02-22T06:55:26.446Z,5.30
2023-02-22T06:56:26.370Z,5.28
2023-02-22T06:57:26.363Z,5.30
2023-02-22T06:58:26.351Z,5.31
2023-02-22T06:59:26.342Z,5.34
2023-02-22T07:00:26.300Z,5.37
2023-02-22T07:01:26.363Z,5.40
2023-02-22T07:02:26.276Z,5.45
2023-02-22T07:03:26.395Z,5.46
2023-02-22T07:04:26.265Z,5.49
2023-02-22T07:05:26.280Z,5.50
2023-02-22T07:06:26.262Z,5.55
2023-02-22T07:07:26.348Z,5.56
2023-02-22T07:08:26.191Z,5.60
2023-02-22T07:09:26.230Z,5.64
2023-02-22T07:10:26.188Z,5.66
2023-02-22T07:11:26.217Z,5.71
2023-02-22T07:12:26.160Z,5.75
2023-02-22T07:13:26.282Z,5.78
2023-02-22T07:14:26.117Z,5.83
2023-02-22T07:15:26.183Z,5.85
2023-02-22T07:16:26.144Z,5.88
2023-02-22T07:17:26.107Z,5.89
2023-02-22T07:18:26.108Z,5.91
2023-02-22T07:19:26.116Z,5.98
2023-02-22T07:20:26.066Z,6.01
2023-02-22T07:21:26.094Z,6.04
2023-02-22T07:22:26.019Z,6.09
2023-02-22T07:23:26.070Z,6.07
2023-02-22T07:24:26.012Z,6.06
2023-02-22T07:25:26.121Z,6.04
2023-02-22T07:26:25.985Z,6.06
2023-02-22T07:27:25.974Z,6.09
2023-02-22T07:28:25.941Z,6.10
2023-02-22T07:29:25.976Z,6.14
2023-02-22T07:30:26.085Z,6.18
2023-02-22T07:31:26.688Z,6.21
2023-02-22T07:32:25.965Z,6.28
2023-02-22T07:33:25.926Z,6.32
2023-02-22T07:34:25.868Z,6.36
2023-02-22T07:35:25.928Z,6.40
2023-02-22T07:36:25.860Z,6.46
2023-02-22T07:37:25.977Z,6.48
2023-02-22T07:38:25.843Z,6.51
2023-02-22T07:39:25.824Z,6.51
2023-02-22T07:40:25.802Z,6.50
2023-02-22T07:41:25.813Z,6.50
2023-02-22T07:42:25.747Z,6.50
2023-02-22T07:43:25.831Z,6.50
2023-02-22T07:44:25.771Z,6.50
2023-02-22T07:45:25.745Z,6.50
2023-02-22T07:46:25.695Z,6.53
2023-02-22T07:47:25.746Z,6.58
2023-02-22T07:48:25.728Z,6.61
2023-02-22T07:49:25.742Z,6.65
2023-02-22T07:50:25.682Z,6.72
2023-02-22T07:51:25.685Z,6.79
2023-02-22T07:52:25.618Z,6.86
2023-02-22T07:53:27.799Z,6.90
2023-02-22T07:54:25.591Z,6.99
2023-02-22T07:55:25.663Z,7.05
2023-02-22T07:56:25.588Z,7.15
2023-02-22T07:57:25.578Z,7.20
2023-02-22T07:58:25.583Z,7.24
2023-02-22T07:59:25.572Z,7.31
2023-02-22T08:00:25.554Z,7.34
2023-02-22T08:01:25.586Z,7.40
2023-02-22T08:02:25.594Z,7.47
2023-02-22T08:03:25.523Z,7.58
2023-02-22T08:04:25.511Z,7.69
2023-02-22T08:05:25.501Z,7.78
2023-02-22T08:06:25.469Z,7.89
2023-02-22T08:07:25.472Z,8.00
2023-02-22T08:08:25.494Z,8.12
2023-02-22T08:09:25.411Z,8.18
2023-02-22T08:10:25.438Z,8.26
2023-02-22T08:11:25.374Z,8.33
2023-02-22T08:12:25.379Z,8.36
2023-02-22T08:13:25.499Z,8.42
2023-02-22T08:14:25.345Z,8.51
2023-02-22T08:15:25.346Z,8.53
2023-02-22T08:16:25.355Z,8.55
2023-02-22T08:17:25.300Z,8.60
2023-02-22T08:18:25.308Z,8.62
2023-02-22T08:19:25.304Z,8.60
2023-02-22T08:20:25.366Z,8.63
2023-02-22T08:21:25.238Z,8.68
2023-02-22T08:22:25.272Z,8.72
2023-02-22T08:23:25.294Z,8.71
2023-02-22T08:24:25.230Z,8.72
2023-02-22T08:25:25.240Z,8.76
2023-02-22T08:26:25.206Z,8.79
2023-02-22T08:27:25.178Z,8.84
2023-02-22T08:28:25.203Z,8.91
2023-02-22T08:29:25.136Z,8.90
2023-02-22T08:30:25.263Z,8.91
2023-02-22T08:31:25.291Z,8.97
2023-02-22T08:32:25.288Z,8.94
2023-02-22T08:33:25.199Z,8.93
2023-02-22T08:34:25.122Z,8.93
2023-02-22T08:35:25.053Z,8.97
2023-02-22T08:36:25.103Z,9.02
2023-02-22T08:37:25.149Z,9.09
2023-02-22T08:38:25.040Z,9.15
2023-02-22T08:39:25.022Z,9.21
2023-02-22T08:40:25.070Z,9.24
2023-02-22T08:41:24.969Z,9.27
2023-02-22T08:42:25.011Z,9.32
2023-02-22T08:43:25.004Z,9.34
2023-02-22T08:44:24.974Z,9.38
2023-02-22T08:45:24.930Z,9.43
2023-02-22T08:46:24.931Z,9.48
2023-02-22T08:47:24.913Z,9.49
2023-02-22T08:48:24.930Z,9.50
2023-02-22T08:49:24.909Z,9.61
2023-02-22T08:50:24.894Z,9.67
2023-02-22T08:51:26.277Z,9.70
2023-02-22T08:52:24.869Z,9.76
2023-02-22T08:53:24.808Z,9.79
2023-02-22T08:54:24.838Z,9.79
2023-02-22T08:55:24.815Z,9.86
2023-02-22T08:56:24.797Z,9.89
2023-02-22T08:57:24.782Z,9.89
2023-02-22T08:58:24.778Z,9.88
2023-02-22T08:59:24.759Z,9.86
2023-02-22T09:00:24.790Z,9.86
2023-02-22T09:01:32.728Z,9.91
2023-02-22T09:02:25.789Z,9.94
2023-02-22T09:03:24.788Z,9.97
2023-02-22T09:04:24.684Z,10.03
2023-02-22T09:05:24.680Z,10.09
2023-02-22T09:06:24.660Z,10.18
2023-02-22T09:07:24.754Z,10.15
2023-02-22T09:08:24.667Z,10.19
2023-02-22T09:09:24.586Z,10.18
2023-02-22T09:10:24.642Z,10.17
2023-02-22T09:11:24.567Z,10.15
2023-02-22T09:12:24.604Z,10.14
2023-02-22T09:13:24.685Z,10.14
2023-02-22T09:14:24.540Z,10.18
2023-02-22T09:15:24.529Z,10.25
2023-02-22T09:16:24.585Z,10.30
2023-02-22T09:17:24.476Z,10.39
2023-02-22T09:18:25.604Z,10.42
2023-02-22T09:19:24.568Z,10.46
2023-02-22T09:20:24.469Z,10.60
2023-02-22T09:21:24.458Z,10.60
2023-02-22T09:22:24.467Z,10.58
2023-02-22T09:23:24.402Z,10.55
2023-02-22T09:24:24.414Z,10.51
2023-02-22T09:25:24.423Z,10.46
2023-02-22T09:26:24.397Z,10.55
2023-02-22T09:27:24.381Z,10.58
2023-02-22T09:28:24.384Z,10.59
2023-02-22T09:29:24.324Z,10.68
2023-02-22T09:30:24.620Z,10.74
2023-02-22T09:31:24.435Z,10.81
2023-02-22T09:32:24.540Z,10.89
2023-02-22T09:33:24.306Z,10.98
2023-02-22T09:34:24.274Z,11.01
2023-02-22T09:35:24.282Z,11.06
2023-02-22T09:36:26.159Z,11.13
2023-02-22T09:37:24.334Z,11.07
2023-02-22T09:38:24.232Z,11.07
2023-02-22T09:39:24.260Z,11.13
2023-02-22T09:40:24.223Z,11.16
2023-02-22T09:41:24.172Z,11.24
2023-02-22T09:42:24.194Z,11.24
2023-02-22T09:43:24.161Z,11.27
2023-02-22T09:44:24.165Z,11.28
2023-02-22T09:45:24.126Z,11.21
2023-02-22T09:46:24.131Z,11.27
2023-02-22T09:47:24.171Z,11.27
2023-02-22T09:48:24.178Z,11.28
2023-02-22T09:49:24.090Z,11.25
2023-02-22T09:50:24.098Z,11.28
2023-02-22T09:51:24.031Z,11.28
2023-02-22T09:52:24.057Z,11.34
2023-02-22T09:53:26.340Z,11.41
2023-02-22T09:54:24.063Z,11.46
2023-02-22T09:55:23.999Z,11.50
2023-02-22T09:56:23.981Z,11.57
2023-02-22T09:57:23.971Z,11.65
2023-02-22T09:58:23.957Z,11.74
2023-02-22T09:59:23.951Z,11.83
2023-02-22T10:00:23.952Z,11.86
2023-02-22T10:01:24.147Z,11.90
2023-02-22T10:02:23.926Z,11.90
2023-02-22T10:03:23.885Z,11.96
2023-02-22T10:04:23.911Z,12.08
2023-02-22T10:05:23.888Z,12.08
2023-02-22T10:06:23.848Z,12.11
2023-02-22T10:07:23.952Z,12.19
2023-02-22T10:08:23.846Z,12.26
2023-02-22T10:09:23.779Z,12.37
2023-02-22T10:10:23.825Z,12.41
2023-02-22T10:11:23.759Z,12.46
2023-02-22T10:12:23.775Z,12.49
2023-02-22T10:13:23.793Z,12.48
2023-02-22T10:14:23.752Z,12.48
2023-02-22T10:15:23.739Z,12.49
2023-02-22T10:16:23.777Z,12.54
2023-02-22T10:17:23.676Z,12.59
2023-02-22T10:18:23.739Z,12.64
2023-02-22T10:19:23.781Z,12.67
2023-02-22T10:20:23.682Z,12.62
2023-02-22T10:21:23.681Z,12.57
2023-02-22T10:22:23.645Z,12.54
2023-02-22T10:23:23.650Z,12.48
2023-02-22T10:24:23.658Z,12.45
2023-02-22T10:25:23.615Z,12.54
2023-02-22T10:26:23.596Z,12.62
2023-02-22T10:27:23.573Z,12.67
2023-02-22T10:28:23.584Z,12.71
2023-02-22T10:29:23.518Z,12.78
2023-02-22T10:30:25.248Z,12.81
2023-02-22T10:31:23.598Z,12.87
2023-02-22T10:32:23.548Z,12.81
2023-02-22T10:33:23.509Z,12.79
2023-02-22T10:34:23.544Z,12.92
2023-02-22T10:35:23.479Z,13.00
2023-02-22T10:36:23.509Z,13.07
2023-02-22T10:37:23.494Z,13.21
2023-02-22T10:38:23.536Z,13.25
2023-02-22T10:39:23.440Z,13.33
2023-02-22T10:40:23.440Z,13.43
2023-02-22T10:41:23.393Z,13.51
2023-02-22T10:42:23.402Z,13.51
2023-02-22T10:43:23.408Z,13.49
2023-02-22T10:44:23.357Z,13.37
2023-02-22T10:45:23.335Z,13.30
2023-02-22T10:46:23.341Z,13.25
2023-02-22T10:47:23.325Z,13.22
2023-02-22T10:48:23.335Z,13.25
2023-02-22T10:49:23.384Z,13.40
2023-02-22T10:50:23.319Z,13.54
2023-02-22T10:51:23.231Z,13.71
2023-02-22T10:52:23.263Z,13.87
2023-02-22T10:53:23.229Z,13.98
2023-02-22T10:54:23.215Z,14.10
2023-02-22T10:55:23.323Z,14.09
2023-02-22T10:56:23.234Z,14.13
2023-02-22T10:57:23.156Z,14.14
2023-02-22T10:58:23.171Z,14.21
2023-02-22T10:59:25.587Z,14.28
2023-02-22T11:00:23.187Z,14.50
2023-02-22T11:01:23.215Z,14.62
2023-02-22T11:02:23.162Z,14.61
2023-02-22T11:03:23.104Z,14.56
2023-02-22T11:04:23.102Z,14.56
2023-02-22T11:05:23.089Z,14.53
2023-02-22T11:06:23.095Z,14.46
2023-02-22T11:07:23.162Z,14.47
2023-02-22T11:08:23.069Z,14.60
2023-02-22T11:09:23.014Z,14.69
2023-02-22T11:10:23.057Z,14.86
2023-02-22T11:11:22.968Z,14.99
2023-02-22T11:12:23.012Z,14.90
2023-02-22T11:13:23.073Z,14.84
2023-02-22T11:14:22.968Z,14.74
2023-02-22T11:15:22.946Z,14.74
2023-02-22T11:16:23.002Z,14.64
2023-02-22T11:17:22.892Z,14.54
2023-02-22T11:18:22.948Z,14.47
2023-02-22T11:19:22.991Z,14.46
2023-02-22T11:20:22.874Z,14.46
2023-02-22T11:21:22.859Z,14.42
2023-02-22T11:22:22.852Z,14.25
2023-02-22T11:23:22.838Z,14.13
2023-02-22T11:24:22.842Z,14.01
2023-02-22T11:25:22.797Z,13.96
2023-02-22T11:26:22.810Z,13.94
2023-02-22T11:27:22.757Z,13.87
2023-02-22T11:28:22.783Z,13.88
2023-02-22T11:29:22.798Z,13.87
2023-02-22T11:30:22.813Z,13.81
2023-02-22T11:31:22.840Z,13.77
2023-02-22T11:32:22.765Z,13.70
2023-02-22T11:33:22.701Z,13.65
2023-02-22T11:34:22.678Z,13.65
2023-02-22T11:35:22.663Z,13.63
2023-02-22T11:36:22.681Z,13.62
2023-02-22T11:37:22.743Z,13.62
2023-02-22T11:38:22.662Z,13.63
2023-02-22T11:39:22.620Z,13.69
2023-02-22T11:40:22.654Z,13.65
2023-02-22T11:41:22.581Z,13.67
2023-02-22T11:42:22.582Z,13.67
2023-02-22T11:43:22.661Z,13.65
2023-02-22T11:44:22.962Z,13.67
2023-02-22T11:45:22.503Z,13.63
2023-02-22T11:46:22.933Z,13.69
2023-02-22T11:47:22.502Z,13.73
2023-02-22T11:48:22.523Z,13.79
2023-02-22T11:49:22.486Z,13.84
2023-02-22T11:50:22.501Z,13.92
2023-02-22T11:51:22.436Z,13.94
2023-02-22T11:52:22.469Z,13.98
2023-02-22T11:53:22.468Z,13.94
2023-02-22T11:54:22.430Z,13.91
2023-02-22T11:55:36.494Z,13.89
2023-02-22T11:56:36.796Z,13.84
2023-02-22T11:57:23.342Z,13.84
2023-02-22T11:58:22.374Z,13.89
2023-02-22T11:59:22.315Z,13.87
2023-02-22T12:00:22.453Z,13.84
2023-02-22T12:01:22.425Z,13.87
2023-02-22T12:02:22.326Z,13.84
2023-02-22T12:03:22.270Z,13.84
2023-02-22T12:04:22.314Z,13.84
2023-02-22T12:05:22.314Z,13.81
2023-02-22T12:06:22.244Z,13.87
2023-02-22T12:07:22.356Z,13.94
2023-02-22T12:08:22.267Z,14.04
2023-02-22T12:09:22.208Z,14.12
2023-02-22T12:10:22.241Z,14.06
2023-02-22T12:11:22.201Z,13.99
2023-02-22T12:12:22.202Z,14.02
2023-02-22T12:13:22.279Z,14.02
2023-02-22T12:14:22.155Z,14.07
2023-02-22T12:15:22.146Z,14.04
2023-02-22T12:16:22.221Z,14.06
2023-02-22T12:17:22.078Z,14.07
2023-02-22T12:18:22.130Z,14.12
2023-02-22T12:19:22.255Z,14.10
2023-02-22T12:20:22.098Z,14.06
2023-02-22T12:21:22.083Z,14.06
2023-02-22T12:22:22.003Z,14.02
2023-02-22T12:23:22.084Z,14.04
2023-02-22T12:24:22.014Z,14.10
2023-02-22T12:25:22.069Z,14.19
2023-02-22T12:26:22.000Z,14.16
2023-02-22T12:27:22.001Z,14.10
2023-02-22T12:28:24.946Z,14.10
2023-02-22T12:29:21.980Z,14.13
2023-02-22T12:30:21.918Z,14.19
2023-02-22T12:31:22.022Z,14.24
2023-02-22T12:32:22.000Z,14.19
2023-02-22T12:33:21.893Z,14.16
2023-02-22T12:34:21.920Z,14.12
2023-02-22T12:35:21.909Z,14.12
2023-02-22T12:36:21.862Z,14.10
2023-02-22T12:37:21.886Z,14.19
2023-02-22T12:38:21.824Z,14.21
2023-02-22T12:39:21.820Z,14.25
2023-02-22T12:40:21.815Z,14.31
2023-02-22T12:41:21.821Z,14.38
2023-02-22T12:42:21.780Z,14.31
2023-02-22T12:43:21.897Z,14.27
2023-02-22T12:44:21.749Z,14.24
2023-02-22T12:45:21.733Z,14.24
2023-02-22T12:46:21.790Z,14.21
2023-02-22T12:47:21.715Z,14.24
2023-02-22T12:48:21.666Z,14.28
2023-02-22T12:49:21.739Z,14.35
2023-02-22T12:50:21.697Z,14.32
2023-02-22T12:51:21.675Z,14.31
2023-02-22T12:52:22.248Z,14.32
2023-02-22T12:53:21.661Z,14.35
2023-02-22T12:54:21.607Z,14.43
2023-02-22T12:55:21.754Z,14.44
2023-02-22T12:56:21.600Z,14.46
2023-02-22T12:57:21.580Z,14.53
2023-02-22T12:58:21.572Z,14.54
2023-02-22T12:59:21.562Z,14.60
2023-02-22T13:00:21.524Z,14.60
2023-02-22T13:01:21.974Z,14.47
2023-02-22T13:02:21.515Z,14.46
2023-02-22T13:03:21.518Z,14.50
2023-02-22T13:04:21.637Z,14.53
2023-02-22T13:05:21.538Z,14.60
2023-02-22T13:06:21.431Z,14.60
2023-02-22T13:07:21.502Z,14.60
2023-02-22T13:08:21.450Z,14.53
2023-02-22T13:09:21.430Z,14.47
2023-02-22T13:10:21.417Z,14.52
2023-02-22T13:11:21.392Z,14.57